sensor_id;sensor_type;location;lat;lon;timestamp;P1;durP1;ratioP1;P2;durP2;ratioP2
3487;SDS011;38546;48.170;11.724;2023-02-27T00:00:19;5.70;;;3.67;;
3487;SDS011;38546;48.170;11.724;2023-02-27T00:03:09;5.27;;;4.60;;
3487;SDS011;38546;48.170;11.724;2023-02-27T00:05:58;5.13;;;4.07;;
3487;SDS011;38546;48.170;11.724;2023-02-27T00:08:47;4.67;;;4.20;;
3487;SDS011;38546;48.170;11.724;2023-02-27T00:11:36;4.40;;;4.00;;
3487;SDS011;38546;48.170;11.724;2023-02-27T00:14:26;4.40;;;4.00;;
3487;SDS011;38546;48.170;11.724;2023-02-27T00:17:16;7.53;;;4.00;;
3487;SDS011;38546;48.170;11.724;2023-02-27T00:20:05;5.67;;;4.60;;
3487;SDS011;38546;48.170;11.724;2023-02-27T00:22:58;8.37;;;5.00;;
3487;SDS011;38546;48.170;11.724;2023-02-27T00:25:47;6.80;;;4.00;;
3487;SDS011;38546;48.170;11.724;2023-02-27T00:28:37;6.23;;;4.97;;
3487;SDS011;38546;48.170;11.724;2023-02-27T00:31:26;8.33;;;5.30;;
3487;SDS011;38546;48.170;11.724;2023-02-27T00:34:16;7.07;;;4.20;;
3487;SDS011;38546;48.170;11.724;2023-02-27T00:37:05;5.03;;;3.90;;
3487;SDS011;38546;48.170;11.724;2023-02-27T00:39:54;7.80;;;4.30;;
3487;SDS011;38546;48.170;11.724;2023-02-27T00:42:43;6.10;;;4.43;;
3487;SDS011;38546;48.170;11.724;2023-02-27T00:45:34;6.73;;;4.13;;
3487;SDS011;38546;48.170;11.724;2023-02-27T00:48:23;5.27;;;4.57;;
3487;SDS011;38546;48.170;11.724;2023-02-27T00:51:13;5.63;;;4.40;;
3487;SDS011;38546;48.170;11.724;2023-02-27T00:54:02;8.17;;;4.73;;
3487;SDS011;38546;48.170;11.724;2023-02-27T00:56:52;3.73;;;3.10;;
3487;SDS011;38546;48.170;11.724;2023-02-27T00:59:41;8.70;;;4.70;;
3487;SDS011;38546;48.170;11.724;2023-02-27T01:02:31;6.90;;;4.30;;
3487;SDS011;38546;48.170;11.724;2023-02-27T01:05:21;4.80;;;3.97;;
3487;SDS011;38546;48.170;11.724;2023-02-27T01:08:10;4.17;;;3.70;;
3487;SDS011;38546;48.170;11.724;2023-02-27T01:11:00;5.17;;;4.00;;
3487;SDS011;38546;48.170;11.724;2023-02-27T01:13:49;7.13;;;4.10;;
3487;SDS011;38546;48.170;11.724;2023-02-27T01:16:38;4.50;;;3.90;;
3487;SDS011;38546;48.170;11.724;2023-02-27T01:19:27;5.93;;;4.47;;
3487;SDS011;38546;48.170;11.724;2023-02-27T01:22:16;5.33;;;3.87;;
3487;SDS011;38546;48.170;11.724;2023-02-27T01:25:06;10.90;;;4.43;;
3487;SDS011;38546;48.170;11.724;2023-02-27T01:27:56;6.57;;;3.60;;
3487;SDS011;38546;48.170;11.724;2023-02-27T01:30:45;6.20;;;4.40;;
3487;SDS011;38546;48.170;11.724;2023-02-27T01:33:35;5.00;;;4.50;;
3487;SDS011;38546;48.170;11.724;2023-02-27T01:36:25;5.43;;;4.97;;
3487;SDS011;38546;48.170;11.724;2023-02-27T01:39:14;4.33;;;3.93;;
3487;SDS011;38546;48.170;11.724;2023-02-27T01:42:05;6.60;;;4.23;;
3487;SDS011;38546;48.170;11.724;2023-02-27T01:45:25;4.63;;;4.17;;
3487;SDS011;38546;48.170;11.724;2023-02-27T01:48:35;5.47;;;4.70;;
3487;SDS011;38546;48.170;11.724;2023-02-27T01:51:29;5.80;;;4.00;;
3487;SDS011;38546;48.170;11.724;2023-02-27T01:54:23;8.63;;;3.77;;
3487;SDS011;38546;48.170;11.724;2023-02-27T01:57:13;4.33;;;4.00;;
3487;SDS011;38546;48.170;11.724;2023-02-27T02:00:03;9.10;;;4.80;;
3487;SDS011;38546;48.170;11.724;2023-02-27T02:07:21;7.07;;;3.80;;
3487;SDS011;38546;48.170;11.724;2023-02-27T02:10:13;8.93;;;4.13;;
3487;SDS011;38546;48.170;11.724;2023-02-27T02:13:04;6.80;;;4.57;;
3487;SDS011;38546;48.170;11.724;2023-02-27T02:16:03;7.70;;;4.10;;
3487;SDS011;38546;48.170;11.724;2023-02-27T02:19:37;8.27;;;4.50;;
3487;SDS011;38546;48.170;11.724;2023-02-27T02:25:39;6.00;;;3.40;;
3487;SDS011;38546;48.170;11.724;2023-02-27T02:31:18;4.50;;;3.17;;
3487;SDS011;38546;48.170;11.724;2023-02-27T02:37:55;6.90;;;4.50;;
3487;SDS011;38546;48.170;11.724;2023-02-27T02:42:55;7.20;;;4.50;;
3487;SDS011;38546;48.170;11.724;2023-02-27T02:46:27;6.77;;;4.50;;
3487;SDS011;38546;48.170;11.724;2023-02-27T02:49:45;7.60;;;4.80;;
3487;SDS011;38546;48.170;11.724;2023-02-27T02:53:25;10.93;;;4.30;;
3487;SDS011;38546;48.170;11.724;2023-02-27T02:56:41;9.43;;;5.23;;
3487;SDS011;38546;48.170;11.724;2023-02-27T03:00:30;6.60;;;4.80;;
3487;SDS011;38546;48.170;11.724;2023-02-27T03:03:27;6.60;;;3.67;;
3487;SDS011;38546;48.170;11.724;2023-02-27T03:06:32;5.50;;;4.53;;
3487;SDS011;38546;48.170;11.724;2023-02-27T03:09:31;9.13;;;4.77;;
3487;SDS011;38546;48.170;11.724;2023-02-27T03:12:27;7.33;;;4.57;;
3487;SDS011;38546;48.170;11.724;2023-02-27T03:15:21;5.53;;;4.13;;
3487;SDS011;38546;48.170;11.724;2023-02-27T03:18:17;4.10;;;3.70;;
3487;SDS011;38546;48.170;11.724;2023-02-27T03:21:14;5.50;;;3.77;;
3487;SDS011;38546;48.170;11.724;2023-02-27T03:24:12;11.83;;;4.77;;
3487;SDS011;38546;48.170;11.724;2023-02-27T03:27:08;5.47;;;4.57;;
3487;SDS011;38546;48.170;11.724;2023-02-27T03:30:07;7.67;;;4.20;;
3487;SDS011;38546;48.170;11.724;2023-02-27T03:33:30;5.70;;;4.33;;
3487;SDS011;38546;48.170;11.724;2023-02-27T03:36:28;5.63;;;3.83;;
3487;SDS011;38546;48.170;11.724;2023-02-27T03:39:54;5.67;;;4.20;;
3487;SDS011;38546;48.170;11.724;2023-02-27T03:49:10;5.37;;;4.00;;
3487;SDS011;38546;48.170;11.724;2023-02-27T03:51:59;6.90;;;4.70;;
3487;SDS011;38546;48.170;11.724;2023-02-27T03:54:52;6.83;;;4.50;;
3487;SDS011;38546;48.170;11.724;2023-02-27T03:57:48;6.33;;;3.97;;
3487;SDS011;38546;48.170;11.724;2023-02-27T04:00:39;6.90;;;4.73;;
3487;SDS011;38546;48.170;11.724;2023-02-27T04:03:31;7.20;;;4.40;;
3487;SDS011;38546;48.170;11.724;2023-02-27T04:06:27;6.00;;;4.10;;
3487;SDS011;38546;48.170;11.724;2023-02-27T04:13:38;5.17;;;4.13;;
3487;SDS011;38546;48.170;11.724;2023-02-27T04:17:24;9.10;;;5.17;;
3487;SDS011;38546;48.170;11.724;2023-02-27T04:21:20;7.93;;;5.47;;
3487;SDS011;38546;48.170;11.724;2023-02-27T04:24:58;16.47;;;5.20;;
3487;SDS011;38546;48.170;11.724;2023-02-27T04:34:36;7.37;;;4.57;;
3487;SDS011;38546;48.170;11.724;2023-02-27T04:37:45;6.00;;;4.30;;
3487;SDS011;38546;48.170;11.724;2023-02-27T04:41:10;7.83;;;4.30;;
3487;SDS011;38546;48.170;11.724;2023-02-27T04:45:35;7.83;;;4.83;;
3487;SDS011;38546;48.170;11.724;2023-02-27T04:48:29;11.03;;;5.50;;
3487;SDS011;38546;48.170;11.724;2023-02-27T04:51:43;5.50;;;4.40;;
3487;SDS011;38546;48.170;11.724;2023-02-27T04:54:45;5.93;;;4.77;;
3487;SDS011;38546;48.170;11.724;2023-02-27T04:57:47;7.83;;;3.97;;
3487;SDS011;38546;48.170;11.724;2023-02-27T05:00:50;6.47;;;5.43;;
3487;SDS011;38546;48.170;11.724;2023-02-27T05:03:47;6.13;;;4.20;;
3487;SDS011;38546;48.170;11.724;2023-02-27T05:06:41;6.20;;;4.70;;
3487;SDS011;38546;48.170;11.724;2023-02-27T05:13:45;5.37;;;3.97;;
3487;SDS011;38546;48.170;11.724;2023-02-27T05:16:48;5.20;;;4.30;;
3487;SDS011;38546;48.170;11.724;2023-02-27T05:19:43;11.07;;;4.03;;
3487;SDS011;38546;48.170;11.724;2023-02-27T05:22:36;11.50;;;5.13;;
3487;SDS011;38546;48.170;11.724;2023-02-27T05:28:50;9.80;;;4.53;;
3487;SDS011;38546;48.170;11.724;2023-02-27T05:34:51;10.60;;;4.50;;
3487;SDS011;38546;48.170;11.724;2023-02-27T05:38:13;8.03;;;4.40;;
3487;SDS011;38546;48.170;11.724;2023-02-27T05:43:07;6.97;;;4.23;;
3487;SDS011;38546;48.170;11.724;2023-02-27T05:46:15;5.00;;;4.50;;
3487;SDS011;38546;48.170;11.724;2023-02-27T05:49:14;9.50;;;4.47;;
3487;SDS011;38546;48.170;11.724;2023-02-27T05:52:11;9.27;;;4.40;;
3487;SDS011;38546;48.170;11.724;2023-02-27T05:55:12;9.70;;;5.30;;
3487;SDS011;38546;48.170;11.724;2023-02-27T05:58:09;7.80;;;4.80;;
3487;SDS011;38546;48.170;11.724;2023-02-27T06:01:48;5.43;;;4.70;;
3487;SDS011;38546;48.170;11.724;2023-02-27T06:04:37;6.60;;;4.10;;
3487;SDS011;38546;48.170;11.724;2023-02-27T06:07:32;5.47;;;4.20;;
3487;SDS011;38546;48.170;11.724;2023-02-27T06:10:22;4.67;;;3.67;;
3487;SDS011;38546;48.170;11.724;2023-02-27T06:13:11;6.03;;;4.50;;
3487;SDS011;38546;48.170;11.724;2023-02-27T06:16:00;5.40;;;3.87;;
3487;SDS011;38546;48.170;11.724;2023-02-27T06:18:50;5.50;;;5.00;;
3487;SDS011;38546;48.170;11.724;2023-02-27T06:21:38;7.70;;;4.87;;
3487;SDS011;38546;48.170;11.724;2023-02-27T06:24:28;9.77;;;4.47;;
3487;SDS011;38546;48.170;11.724;2023-02-27T06:27:17;6.93;;;4.87;;
3487;SDS011;38546;48.170;11.724;2023-02-27T06:30:07;7.30;;;5.03;;
3487;SDS011;38546;48.170;11.724;2023-02-27T06:32:57;9.70;;;4.93;;
3487;SDS011;38546;48.170;11.724;2023-02-27T06:35:47;5.47;;;4.30;;
3487;SDS011;38546;48.170;11.724;2023-02-27T06:38:37;5.23;;;4.10;;
3487;SDS011;38546;48.170;11.724;2023-02-27T06:41:26;6.27;;;4.30;;
3487;SDS011;38546;48.170;11.724;2023-02-27T06:44:16;7.57;;;4.60;;
3487;SDS011;38546;48.170;11.724;2023-02-27T06:47:05;4.33;;;3.90;;
3487;SDS011;38546;48.170;11.724;2023-02-27T06:49:54;6.03;;;4.50;;
3487;SDS011;38546;48.170;11.724;2023-02-27T06:52:44;6.97;;;3.80;;
3487;SDS011;38546;48.170;11.724;2023-02-27T06:55:33;5.70;;;4.13;;
3487;SDS011;38546;48.170;11.724;2023-02-27T06:58:22;6.03;;;4.60;;
3487;SDS011;38546;48.170;11.724;2023-02-27T07:01:12;9.47;;;5.00;;
3487;SDS011;38546;48.170;11.724;2023-02-27T07:04:01;6.13;;;3.60;;
3487;SDS011;38546;48.170;11.724;2023-02-27T07:06:51;8.63;;;4.90;;
3487;SDS011;38546;48.170;11.724;2023-02-27T07:09:40;6.23;;;4.20;;
3487;SDS011;38546;48.170;11.724;2023-02-27T07:12:29;7.97;;;4.43;;
3487;SDS011;38546;48.170;11.724;2023-02-27T07:15:18;6.50;;;5.87;;
3487;SDS011;38546;48.170;11.724;2023-02-27T07:18:07;4.77;;;4.20;;
3487;SDS011;38546;48.170;11.724;2023-02-27T07:20:56;6.93;;;5.17;;
3487;SDS011;38546;48.170;11.724;2023-02-27T07:23:45;6.00;;;4.60;;
3487;SDS011;38546;48.170;11.724;2023-02-27T07:26:34;4.40;;;4.00;;
3487;SDS011;38546;48.170;11.724;2023-02-27T07:29:24;4.87;;;4.40;;
3487;SDS011;38546;48.170;11.724;2023-02-27T07:32:13;7.87;;;4.40;;
3487;SDS011;38546;48.170;11.724;2023-02-27T07:35:02;8.13;;;4.73;;
3487;SDS011;38546;48.170;11.724;2023-02-27T07:37:52;5.70;;;4.13;;
3487;SDS011;38546;48.170;11.724;2023-02-27T07:40:41;6.43;;;4.20;;
3487;SDS011;38546;48.170;11.724;2023-02-27T07:43:30;9.53;;;4.30;;
3487;SDS011;38546;48.170;11.724;2023-02-27T07:46:19;9.60;;;4.77;;
3487;SDS011;38546;48.170;11.724;2023-02-27T07:49:11;4.20;;;3.87;;
3487;SDS011;38546;48.170;11.724;2023-02-27T07:52:00;8.23;;;4.13;;
3487;SDS011;38546;48.170;11.724;2023-02-27T07:54:50;4.60;;;4.20;;
3487;SDS011;38546;48.170;11.724;2023-02-27T07:57:39;6.43;;;3.97;;
3487;SDS011;38546;48.170;11.724;2023-02-27T08:00:28;5.73;;;4.23;;
3487;SDS011;38546;48.170;11.724;2023-02-27T08:03:18;4.30;;;3.97;;
3487;SDS011;38546;48.170;11.724;2023-02-27T08:06:08;8.17;;;4.63;;
3487;SDS011;38546;48.170;11.724;2023-02-27T08:08:57;7.90;;;4.93;;
3487;SDS011;38546;48.170;11.724;2023-02-27T08:11:46;7.43;;;5.07;;
3487;SDS011;38546;48.170;11.724;2023-02-27T08:14:36;5.20;;;4.10;;
3487;SDS011;38546;48.170;11.724;2023-02-27T08:17:25;4.73;;;4.33;;
3487;SDS011;38546;48.170;11.724;2023-02-27T08:20:14;8.00;;;5.00;;
3487;SDS011;38546;48.170;11.724;2023-02-27T08:23:10;5.37;;;4.40;;
3487;SDS011;38546;48.170;11.724;2023-02-27T08:26:00;7.23;;;4.80;;
3487;SDS011;38546;48.170;11.724;2023-02-27T08:28:50;6.70;;;4.60;;
3487;SDS011;38546;48.170;11.724;2023-02-27T08:31:39;5.30;;;4.40;;
3487;SDS011;38546;48.170;11.724;2023-02-27T08:34:29;9.97;;;5.17;;
3487;SDS011;38546;48.170;11.724;2023-02-27T08:37:18;5.80;;;4.90;;
3487;SDS011;38546;48.170;11.724;2023-02-27T08:40:08;5.33;;;4.47;;
3487;SDS011;38546;48.170;11.724;2023-02-27T08:42:59;6.07;;;4.87;;
3487;SDS011;38546;48.170;11.724;2023-02-27T08:45:49;9.23;;;5.47;;
3487;SDS011;38546;48.170;11.724;2023-02-27T08:48:39;8.43;;;5.30;;
3487;SDS011;38546;48.170;11.724;2023-02-27T08:51:30;6.60;;;5.07;;
3487;SDS011;38546;48.170;11.724;2023-02-27T08:54:20;7.97;;;4.60;;
3487;SDS011;38546;48.170;11.724;2023-02-27T08:57:09;7.60;;;6.20;;
3487;SDS011;38546;48.170;11.724;2023-02-27T08:59:58;7.63;;;5.30;;
3487;SDS011;38546;48.170;11.724;2023-02-27T09:02:48;10.27;;;5.90;;
3487;SDS011;38546;48.170;11.724;2023-02-27T09:05:37;7.90;;;5.20;;
3487;SDS011;38546;48.170;11.724;2023-02-27T09:08:28;8.73;;;5.87;;
3487;SDS011;38546;48.170;11.724;2023-02-27T09:11:17;13.10;;;5.60;;
3487;SDS011;38546;48.170;11.724;2023-02-27T09:14:07;5.63;;;5.13;;
3487;SDS011;38546;48.170;11.724;2023-02-27T09:16:56;9.10;;;6.40;;
3487;SDS011;38546;48.170;11.724;2023-02-27T09:19:46;8.67;;;6.43;;
3487;SDS011;38546;48.170;11.724;2023-02-27T09:22:35;11.50;;;6.10;;
3487;SDS011;38546;48.170;11.724;2023-02-27T09:25:25;6.37;;;5.10;;
3487;SDS011;38546;48.170;11.724;2023-02-27T09:28:16;10.67;;;5.87;;
3487;SDS011;38546;48.170;11.724;2023-02-27T09:31:06;11.63;;;5.53;;
3487;SDS011;38546;48.170;11.724;2023-02-27T09:33:56;9.87;;;5.60;;
3487;SDS011;38546;48.170;11.724;2023-02-27T09:36:46;11.00;;;6.13;;
3487;SDS011;38546;48.170;11.724;2023-02-27T09:39:36;6.77;;;5.43;;
3487;SDS011;38546;48.170;11.724;2023-02-27T09:42:27;10.80;;;7.20;;
3487;SDS011;38546;48.170;11.724;2023-02-27T09:45:29;9.73;;;6.13;;
3487;SDS011;38546;48.170;11.724;2023-02-27T09:48:46;15.47;;;6.03;;
3487;SDS011;38546;48.170;11.724;2023-02-27T09:51:43;9.23;;;6.30;;
3487;SDS011;38546;48.170;11.724;2023-02-27T09:54:32;8.87;;;6.20;;
3487;SDS011;38546;48.170;11.724;2023-02-27T10:09:50;7.80;;;5.47;;
3487;SDS011;38546;48.170;11.724;2023-02-27T10:13:29;10.57;;;6.60;;
3487;SDS011;38546;48.170;11.724;2023-02-27T10:16:31;7.50;;;5.00;;
3487;SDS011;38546;48.170;11.724;2023-02-27T10:19:26;7.43;;;5.90;;
3487;SDS011;38546;48.170;11.724;2023-02-27T10:22:22;10.30;;;5.60;;
3487;SDS011;38546;48.170;11.724;2023-02-27T10:25:21;6.63;;;5.40;;
3487;SDS011;38546;48.170;11.724;2023-02-27T10:28:12;6.00;;;4.27;;
3487;SDS011;38546;48.170;11.724;2023-02-27T10:31:16;7.10;;;4.30;;
3487;SDS011;38546;48.170;11.724;2023-02-27T10:34:13;5.00;;;3.93;;
3487;SDS011;38546;48.170;11.724;2023-02-27T10:37:06;14.33;;;4.67;;
3487;SDS011;38546;48.170;11.724;2023-02-27T10:40:01;15.27;;;3.47;;
3487;SDS011;38546;48.170;11.724;2023-02-27T10:42:53;6.27;;;3.70;;
3487;SDS011;38546;48.170;11.724;2023-02-27T10:45:48;5.30;;;3.50;;
3487;SDS011;38546;48.170;11.724;2023-02-27T10:48:38;7.20;;;3.90;;
3487;SDS011;38546;48.170;11.724;2023-02-27T10:51:32;6.97;;;3.60;;
3487;SDS011;38546;48.170;11.724;2023-02-27T10:54:24;4.10;;;3.70;;
3487;SDS011;38546;48.170;11.724;2023-02-27T11:00:33;4.90;;;4.43;;
3487;SDS011;38546;48.170;11.724;2023-02-27T11:03:40;3.37;;;3.07;;
3487;SDS011;38546;48.170;11.724;2023-02-27T11:06:31;6.43;;;3.77;;
3487;SDS011;38546;48.170;11.724;2023-02-27T11:09:23;7.10;;;4.87;;
3487;SDS011;38546;48.170;11.724;2023-02-27T11:12:25;5.13;;;3.50;;
3487;SDS011;38546;48.170;11.724;2023-02-27T11:15:22;5.73;;;4.23;;
3487;SDS011;38546;48.170;11.724;2023-02-27T11:21:25;4.23;;;3.63;;
3487;SDS011;38546;48.170;11.724;2023-02-27T11:24:17;6.30;;;3.53;;
3487;SDS011;38546;48.170;11.724;2023-02-27T11:27:21;4.70;;;3.40;;
3487;SDS011;38546;48.170;11.724;2023-02-27T11:30:24;4.80;;;3.90;;
3487;SDS011;38546;48.170;11.724;2023-02-27T11:33:17;9.30;;;3.43;;
3487;SDS011;38546;48.170;11.724;2023-02-27T11:36:08;5.83;;;3.13;;
3487;SDS011;38546;48.170;11.724;2023-02-27T11:38:57;5.67;;;3.40;;
3487;SDS011;38546;48.170;11.724;2023-02-27T11:41:47;3.10;;;2.40;;
3487;SDS011;38546;48.170;11.724;2023-02-27T11:44:37;5.10;;;3.33;;
3487;SDS011;38546;48.170;11.724;2023-02-27T11:47:36;4.33;;;3.17;;
3487;SDS011;38546;48.170;11.724;2023-02-27T11:52:22;5.57;;;3.30;;
3487;SDS011;38546;48.170;11.724;2023-02-27T11:55:29;3.87;;;2.47;;
3487;SDS011;38546;48.170;11.724;2023-02-27T11:58:20;3.43;;;3.13;;
3487;SDS011;38546;48.170;11.724;2023-02-27T12:01:15;3.40;;;3.10;;
3487;SDS011;38546;48.170;11.724;2023-02-27T12:04:55;3.73;;;2.77;;
3487;SDS011;38546;48.170;11.724;2023-02-27T12:08:09;14.50;;;4.00;;
3487;SDS011;38546;48.170;11.724;2023-02-27T12:11:24;2.97;;;2.73;;
3487;SDS011;38546;48.170;11.724;2023-02-27T12:18:40;2.77;;;2.53;;
3487;SDS011;38546;48.170;11.724;2023-02-27T12:21:55;3.40;;;3.10;;
3487;SDS011;38546;48.170;11.724;2023-02-27T12:24:57;5.10;;;3.67;;
3487;SDS011;38546;48.170;11.724;2023-02-27T12:28:55;9.70;;;3.30;;
3487;SDS011;38546;48.170;11.724;2023-02-27T12:32:34;3.33;;;2.97;;
3487;SDS011;38546;48.170;11.724;2023-02-27T12:35:43;7.43;;;3.30;;
3487;SDS011;38546;48.170;11.724;2023-02-27T12:38:35;4.20;;;3.63;;
3487;SDS011;38546;48.170;11.724;2023-02-27T12:41:34;4.10;;;2.77;;
3487;SDS011;38546;48.170;11.724;2023-02-27T12:46:14;3.30;;;3.10;;
3487;SDS011;38546;48.170;11.724;2023-02-27T12:49:41;5.40;;;3.10;;
3487;SDS011;38546;48.170;11.724;2023-02-27T12:53:25;4.33;;;3.47;;
3487;SDS011;38546;48.170;11.724;2023-02-27T12:56:53;5.67;;;3.50;;
3487;SDS011;38546;48.170;11.724;2023-02-27T13:01:47;4.40;;;3.10;;
3487;SDS011;38546;48.170;11.724;2023-02-27T13:04:46;4.00;;;3.40;;
3487;SDS011;38546;48.170;11.724;2023-02-27T13:12:45;5.07;;;3.63;;
3487;SDS011;38546;48.170;11.724;2023-02-27T13:15:40;4.70;;;3.43;;
3487;SDS011;38546;48.170;11.724;2023-02-27T13:18:46;4.20;;;3.50;;
3487;SDS011;38546;48.170;11.724;2023-02-27T13:21:45;4.20;;;3.77;;
3487;SDS011;38546;48.170;11.724;2023-02-27T13:24:45;3.23;;;2.80;;
3487;SDS011;38546;48.170;11.724;2023-02-27T13:27:43;4.10;;;3.80;;
3487;SDS011;38546;48.170;11.724;2023-02-27T13:30:43;5.43;;;3.90;;
3487;SDS011;38546;48.170;11.724;2023-02-27T13:36:40;5.80;;;3.67;;
3487;SDS011;38546;48.170;11.724;2023-02-27T13:42:50;4.70;;;3.47;;
3487;SDS011;38546;48.170;11.724;2023-02-27T13:45:48;4.13;;;3.60;;
3487;SDS011;38546;48.170;11.724;2023-02-27T13:58:24;5.67;;;3.83;;
3487;SDS011;38546;48.170;11.724;2023-02-27T14:01:19;4.27;;;3.70;;
3487;SDS011;38546;48.170;11.724;2023-02-27T14:04:14;7.73;;;4.30;;
3487;SDS011;38546;48.170;11.724;2023-02-27T14:07:08;5.87;;;3.93;;
3487;SDS011;38546;48.170;11.724;2023-02-27T14:10:04;4.87;;;4.10;;
3487;SDS011;38546;48.170;11.724;2023-02-27T14:12:57;6.13;;;4.37;;
3487;SDS011;38546;48.170;11.724;2023-02-27T14:15:48;6.10;;;4.30;;
3487;SDS011;38546;48.170;11.724;2023-02-27T14:18:55;11.63;;;4.30;;
3487;SDS011;38546;48.170;11.724;2023-02-27T14:21:48;4.47;;;4.07;;
3487;SDS011;38546;48.170;11.724;2023-02-27T14:27:29;3.70;;;3.20;;
3487;SDS011;38546;48.170;11.724;2023-02-27T14:30:37;4.03;;;3.57;;
3487;SDS011;38546;48.170;11.724;2023-02-27T14:33:44;6.60;;;4.10;;
3487;SDS011;38546;48.170;11.724;2023-02-27T14:36:44;5.20;;;4.70;;
3487;SDS011;38546;48.170;11.724;2023-02-27T14:39:39;6.30;;;4.50;;
3487;SDS011;38546;48.170;11.724;2023-02-27T14:43:04;10.87;;;4.80;;
3487;SDS011;38546;48.170;11.724;2023-02-27T14:46:13;4.90;;;4.13;;
3487;SDS011;38546;48.170;11.724;2023-02-27T14:49:29;9.40;;;5.00;;
3487;SDS011;38546;48.170;11.724;2023-02-27T14:52:25;6.17;;;4.20;;
3487;SDS011;38546;48.170;11.724;2023-02-27T14:55:23;7.97;;;4.27;;
3487;SDS011;38546;48.170;11.724;2023-02-27T14:58:23;9.60;;;4.30;;
3487;SDS011;38546;48.170;11.724;2023-02-27T15:01:14;7.50;;;5.20;;
3487;SDS011;38546;48.170;11.724;2023-02-27T15:04:04;7.60;;;4.90;;
3487;SDS011;38546;48.170;11.724;2023-02-27T15:06:56;12.93;;;5.13;;
3487;SDS011;38546;48.170;11.724;2023-02-27T15:09:47;5.07;;;4.43;;
3487;SDS011;38546;48.170;11.724;2023-02-27T15:12:37;4.87;;;4.47;;
3487;SDS011;38546;48.170;11.724;2023-02-27T15:15:27;5.83;;;4.37;;
3487;SDS011;38546;48.170;11.724;2023-02-27T15:18:16;7.27;;;4.60;;
3487;SDS011;38546;48.170;11.724;2023-02-27T15:21:12;5.30;;;4.80;;
3487;SDS011;38546;48.170;11.724;2023-02-27T15:24:04;5.07;;;4.30;;
3487;SDS011;38546;48.170;11.724;2023-02-27T15:27:06;7.17;;;4.80;;
3487;SDS011;38546;48.170;11.724;2023-02-27T15:29:58;7.20;;;3.50;;
3487;SDS011;38546;48.170;11.724;2023-02-27T15:32:48;6.50;;;4.47;;
3487;SDS011;38546;48.170;11.724;2023-02-27T15:35:37;10.63;;;5.17;;
3487;SDS011;38546;48.170;11.724;2023-02-27T15:38:34;7.67;;;4.73;;
3487;SDS011;38546;48.170;11.724;2023-02-27T15:41:25;5.90;;;5.00;;
3487;SDS011;38546;48.170;11.724;2023-02-27T15:44:15;7.37;;;4.93;;
3487;SDS011;38546;48.170;11.724;2023-02-27T15:47:09;7.47;;;4.50;;
3487;SDS011;38546;48.170;11.724;2023-02-27T15:50:26;5.37;;;4.07;;
3487;SDS011;38546;48.170;11.724;2023-02-27T15:53:23;5.67;;;4.97;;
3487;SDS011;38546;48.170;11.724;2023-02-27T15:56:14;6.97;;;5.00;;
3487;SDS011;38546;48.170;11.724;2023-02-27T15:59:05;5.57;;;4.30;;
3487;SDS011;38546;48.170;11.724;2023-02-27T16:01:55;7.23;;;5.10;;
3487;SDS011;38546;48.170;11.724;2023-02-27T16:04:44;5.03;;;4.53;;
3487;SDS011;38546;48.170;11.724;2023-02-27T16:07:36;4.60;;;4.20;;
3487;SDS011;38546;48.170;11.724;2023-02-27T16:10:34;4.67;;;4.27;;
3487;SDS011;38546;48.170;11.724;2023-02-27T16:13:32;5.03;;;4.10;;
3487;SDS011;38546;48.170;11.724;2023-02-27T16:16:33;10.90;;;4.87;;
3487;SDS011;38546;48.170;11.724;2023-02-27T16:19:26;10.13;;;5.37;;
3487;SDS011;38546;48.170;11.724;2023-02-27T16:22:18;5.00;;;4.50;;
3487;SDS011;38546;48.170;11.724;2023-02-27T16:25:09;7.23;;;4.60;;
3487;SDS011;38546;48.170;11.724;2023-02-27T16:28:12;7.60;;;4.43;;
3487;SDS011;38546;48.170;11.724;2023-02-27T16:31:03;6.53;;;4.70;;
3487;SDS011;38546;48.170;11.724;2023-02-27T16:34:14;5.70;;;4.93;;
3487;SDS011;38546;48.170;11.724;2023-02-27T16:37:26;7.73;;;4.57;;
3487;SDS011;38546;48.170;11.724;2023-02-27T16:40:27;5.30;;;4.83;;
3487;SDS011;38546;48.170;11.724;2023-02-27T16:43:17;6.33;;;4.40;;
3487;SDS011;38546;48.170;11.724;2023-02-27T16:46:06;4.97;;;4.47;;
3487;SDS011;38546;48.170;11.724;2023-02-27T16:48:56;6.47;;;4.80;;
3487;SDS011;38546;48.170;11.724;2023-02-27T16:51:52;6.43;;;4.93;;
3487;SDS011;38546;48.170;11.724;2023-02-27T16:54:41;5.20;;;4.43;;
3487;SDS011;38546;48.170;11.724;2023-02-27T16:57:31;8.27;;;5.00;;
3487;SDS011;38546;48.170;11.724;2023-02-27T17:00:20;5.57;;;4.40;;
3487;SDS011;38546;48.170;11.724;2023-02-27T17:03:12;5.50;;;4.60;;
3487;SDS011;38546;48.170;11.724;2023-02-27T17:06:02;7.50;;;5.77;;
3487;SDS011;38546;48.170;11.724;2023-02-27T17:08:51;8.20;;;5.20;;
3487;SDS011;38546;48.170;11.724;2023-02-27T17:11:40;7.37;;;5.20;;
3487;SDS011;38546;48.170;11.724;2023-02-27T17:14:30;7.13;;;5.20;;
3487;SDS011;38546;48.170;11.724;2023-02-27T17:17:19;4.80;;;4.33;;
3487;SDS011;38546;48.170;11.724;2023-02-27T17:20:08;9.27;;;5.00;;
3487;SDS011;38546;48.170;11.724;2023-02-27T17:22:59;11.53;;;5.10;;
3487;SDS011;38546;48.170;11.724;2023-02-27T17:25:50;7.90;;;5.17;;
3487;SDS011;38546;48.170;11.724;2023-02-27T17:28:41;6.60;;;5.67;;
3487;SDS011;38546;48.170;11.724;2023-02-27T17:31:30;9.87;;;5.20;;
3487;SDS011;38546;48.170;11.724;2023-02-27T17:34:19;6.20;;;4.50;;
3487;SDS011;38546;48.170;11.724;2023-02-27T17:37:09;7.53;;;4.57;;
3487;SDS011;38546;48.170;11.724;2023-02-27T17:39:57;9.20;;;5.63;;
3487;SDS011;38546;48.170;11.724;2023-02-27T17:42:46;10.37;;;5.90;;
3487;SDS011;38546;48.170;11.724;2023-02-27T17:45:36;10.67;;;6.43;;
3487;SDS011;38546;48.170;11.724;2023-02-27T17:48:25;9.17;;;5.60;;
3487;SDS011;38546;48.170;11.724;2023-02-27T17:51:15;11.23;;;5.13;;
3487;SDS011;38546;48.170;11.724;2023-02-27T17:54:05;10.63;;;6.10;;
3487;SDS011;38546;48.170;11.724;2023-02-27T17:56:55;11.60;;;6.93;;
3487;SDS011;38546;48.170;11.724;2023-02-27T17:59:44;12.00;;;6.70;;
3487;SDS011;38546;48.170;11.724;2023-02-27T18:02:33;12.80;;;5.90;;
3487;SDS011;38546;48.170;11.724;2023-02-27T18:05:23;11.37;;;5.67;;
3487;SDS011;38546;48.170;11.724;2023-02-27T18:08:12;7.87;;;5.40;;
3487;SDS011;38546;48.170;11.724;2023-02-27T18:11:01;7.50;;;5.70;;
3487;SDS011;38546;48.170;11.724;2023-02-27T18:13:51;7.07;;;5.53;;
3487;SDS011;38546;48.170;11.724;2023-02-27T18:16:40;6.20;;;5.27;;
3487;SDS011;38546;48.170;11.724;2023-02-27T18:19:29;9.90;;;5.67;;
3487;SDS011;38546;48.170;11.724;2023-02-27T18:22:19;9.57;;;5.43;;
3487;SDS011;38546;48.170;11.724;2023-02-27T18:25:09;14.90;;;5.37;;
3487;SDS011;38546;48.170;11.724;2023-02-27T18:27:58;8.70;;;5.10;;
3487;SDS011;38546;48.170;11.724;2023-02-27T18:30:48;8.67;;;5.60;;
3487;SDS011;38546;48.170;11.724;2023-02-27T18:33:37;10.00;;;5.73;;
3487;SDS011;38546;48.170;11.724;2023-02-27T18:36:27;8.73;;;5.90;;
3487;SDS011;38546;48.170;11.724;2023-02-27T18:39:17;8.73;;;5.13;;
3487;SDS011;38546;48.170;11.724;2023-02-27T18:42:06;8.03;;;5.37;;
3487;SDS011;38546;48.170;11.724;2023-02-27T18:44:56;10.37;;;5.73;;
3487;SDS011;38546;48.170;11.724;2023-02-27T18:47:45;12.20;;;5.80;;
3487;SDS011;38546;48.170;11.724;2023-02-27T18:50:34;16.20;;;6.60;;
3487;SDS011;38546;48.170;11.724;2023-02-27T18:53:24;8.13;;;5.27;;
3487;SDS011;38546;48.170;11.724;2023-02-27T18:56:14;7.30;;;5.47;;
3487;SDS011;38546;48.170;11.724;2023-02-27T18:59:06;8.87;;;6.10;;
3487;SDS011;38546;48.170;11.724;2023-02-27T19:01:55;8.47;;;5.40;;
3487;SDS011;38546;48.170;11.724;2023-02-27T19:04:45;12.53;;;5.80;;
3487;SDS011;38546;48.170;11.724;2023-02-27T19:07:36;9.10;;;5.40;;
3487;SDS011;38546;48.170;11.724;2023-02-27T19:10:26;11.60;;;6.80;;
3487;SDS011;38546;48.170;11.724;2023-02-27T19:13:15;6.70;;;5.47;;
3487;SDS011;38546;48.170;11.724;2023-02-27T19:16:04;8.73;;;5.27;;